createdAt,value
2023-04-18T00:00:13.643Z,25.13
2023-04-18T00:01:13.607Z,25.09
2023-04-18T00:02:13.712Z,25.15
2023-04-18T00:03:13.847Z,25.10
2023-04-18T00:04:14.273Z,25.12
2023-04-18T00:05:13.706Z,25.11
2023-04-18T00:06:13.615Z,25.12
2023-04-18T00:07:13.570Z,25.14
2023-04-18T00:08:13.607Z,25.11
2023-04-18T00:09:13.587Z,25.12
2023-04-18T00:10:13.574Z,25.11
2023-04-18T00:11:13.540Z,25.10
2023-04-18T00:12:13.590Z,25.10
2023-04-18T00:13:13.562Z,25.11
2023-04-18T00:14:13.674Z,25.12
2023-04-18T00:15:13.630Z,25.11
2023-04-18T00:16:13.665Z,25.11
2023-04-18T00:17:13.702Z,25.11
2023-04-18T00:18:13.644Z,25.12
2023-04-18T00:19:13.704Z,25.11
2023-04-18T00:20:13.747Z,25.14
2023-04-18T00:21:13.739Z,25.11
2023-04-18T00:22:13.785Z,25.12
2023-04-18T00:23:13.819Z,25.10
2023-04-18T00:24:14.073Z,25.12
2023-04-18T00:25:13.879Z,25.12
2023-04-18T00:26:13.905Z,25.11
2023-04-18T00:27:13.960Z,25.12
2023-04-18T00:28:14.006Z,25.09
2023-04-18T00:29:14.006Z,25.11
2023-04-18T00:30:14.009Z,25.11
2023-04-18T00:31:14.073Z,25.08
2023-04-18T00:32:14.080Z,25.12
2023-04-18T00:33:14.092Z,25.11
2023-04-18T00:34:14.451Z,25.11
2023-04-18T00:35:14.180Z,25.14
2023-04-18T00:36:14.189Z,25.19
2023-04-18T00:37:14.224Z,25.16
2023-04-18T00:38:14.272Z,25.15
2023-04-18T00:39:14.288Z,25.15
2023-04-18T00:40:14.337Z,25.16
2023-04-18T00:41:14.320Z,25.15
2023-04-18T00:42:14.405Z,25.15
2023-04-18T00:43:14.384Z,25.16
2023-04-18T00:44:14.706Z,25.18
2023-04-18T00:45:14.446Z,25.15
2023-04-18T00:46:14.541Z,25.15
2023-04-18T00:47:14.489Z,25.14
2023-04-18T00:48:14.581Z,25.14
2023-04-18T00:49:14.585Z,25.17
2023-04-18T00:50:14.583Z,25.14
2023-04-18T00:51:14.614Z,25.11
2023-04-18T00:52:14.676Z,25.14
2023-04-18T00:53:14.683Z,25.11
2023-04-18T00:54:14.822Z,25.16
2023-04-18T00:55:14.722Z,25.16
2023-04-18T00:56:14.830Z,25.13
2023-04-18T00:57:14.799Z,25.15
2023-04-18T00:58:14.806Z,25.20
2023-04-18T00:59:14.857Z,25.19
2023-04-18T01:00:14.888Z,25.19
2023-04-18T01:01:14.974Z,25.18
2023-04-18T01:02:15.045Z,25.18
2023-04-18T01:03:15.092Z,25.12
2023-04-18T01:04:15.372Z,25.15
2023-04-18T01:05:15.100Z,25.19
2023-04-18T01:06:15.121Z,25.15
2023-04-18T01:07:15.108Z,25.15
2023-04-18T01:08:15.155Z,25.12
2023-04-18T01:09:15.209Z,25.17
2023-04-18T01:10:15.292Z,25.15
2023-04-18T01:11:15.288Z,25.14
2023-04-18T01:12:15.335Z,25.12
2023-04-18T01:13:15.325Z,25.12
2023-04-18T01:14:15.482Z,25.11
2023-04-18T01:15:15.358Z,25.12
2023-04-18T01:16:15.469Z,25.14
2023-04-18T01:17:15.450Z,25.15
2023-04-18T01:18:15.465Z,25.15
2023-04-18T01:19:15.496Z,25.16
2023-04-18T01:20:15.581Z,25.16
2023-04-18T01:21:15.572Z,25.16
2023-04-18T01:22:15.620Z,25.15
2023-04-18T01:23:15.673Z,25.13
2023-04-18T01:24:16.174Z,25.17
2023-04-18T01:25:15.712Z,25.11
2023-04-18T01:26:15.756Z,25.19
2023-04-18T01:27:15.800Z,25.20
2023-04-18T01:28:15.838Z,25.13
2023-04-18T01:29:15.923Z,25.16
2023-04-18T01:30:15.923Z,25.19
2023-04-18T01:31:15.978Z,25.20
2023-04-18T01:32:15.995Z,25.13
2023-04-18T01:33:15.993Z,25.17
2023-04-18T01:34:16.089Z,25.17
2023-04-18T01:35:16.123Z,25.21
2023-04-18T01:36:16.136Z,25.14
2023-04-18T01:37:16.184Z,25.22
2023-04-18T01:38:16.208Z,25.18
2023-04-18T01:39:16.261Z,25.18
2023-04-18T01:40:16.290Z,25.14
2023-04-18T01:41:16.325Z,25.18
2023-04-18T01:42:16.374Z,25.20
2023-04-18T01:43:16.438Z,25.17
2023-04-18T01:44:16.534Z,25.21
2023-04-18T01:45:16.520Z,25.16
2023-04-18T01:46:16.554Z,25.18
2023-04-18T01:47:16.598Z,25.17
2023-04-18T01:48:16.615Z,25.18
2023-04-18T01:49:16.660Z,25.20
2023-04-18T01:50:16.706Z,25.20
2023-04-18T01:51:16.736Z,25.20
2023-04-18T01:52:16.769Z,25.20
2023-04-18T01:53:16.813Z,25.18
2023-04-18T01:54:16.933Z,25.17
2023-04-18T01:55:16.902Z,25.24
2023-04-18T01:56:17.027Z,25.17
2023-04-18T01:57:16.978Z,25.13
2023-04-18T01:58:17.039Z,25.20
2023-04-18T01:59:17.099Z,25.17
2023-04-18T02:00:17.112Z,25.21
2023-04-18T02:01:17.193Z,25.17
2023-04-18T02:02:17.266Z,25.18
2023-04-18T02:03:17.359Z,25.18
2023-04-18T02:04:17.467Z,25.21
2023-04-18T02:05:17.322Z,25.20
2023-04-18T02:06:17.363Z,25.15
2023-04-18T02:07:17.377Z,25.20
2023-04-18T02:08:17.438Z,25.22
2023-04-18T02:09:17.469Z,25.24
2023-04-18T02:10:17.518Z,25.21
2023-04-18T02:11:17.617Z,25.23
2023-04-18T02:12:17.648Z,25.19
2023-04-18T02:13:17.633Z,25.18
2023-04-18T02:14:17.688Z,25.24
2023-04-18T02:15:17.752Z,25.20
2023-04-18T02:16:17.835Z,25.21
2023-04-18T02:17:17.842Z,25.18
2023-04-18T02:18:17.863Z,25.21
2023-04-18T02:19:17.912Z,25.22
2023-04-18T02:20:18.031Z,25.22
2023-04-18T02:21:17.992Z,25.21
2023-04-18T02:22:18.047Z,25.22
2023-04-18T02:23:18.087Z,25.22
2023-04-18T02:24:18.110Z,25.19
2023-04-18T02:25:18.163Z,25.18
2023-04-18T02:26:18.218Z,25.25
2023-04-18T02:27:18.240Z,25.20
2023-04-18T02:28:18.282Z,25.15
2023-04-18T02:29:18.332Z,25.22
2023-04-18T02:30:18.381Z,25.21
2023-04-18T02:31:18.455Z,25.25
2023-04-18T02:32:18.524Z,25.22
2023-04-18T02:33:18.494Z,25.20
2023-04-18T02:34:18.533Z,25.21
2023-04-18T02:35:18.575Z,25.21
2023-04-18T02:36:18.626Z,25.18
2023-04-18T02:37:18.658Z,25.21
2023-04-18T02:38:18.710Z,25.21
2023-04-18T02:39:18.774Z,25.19
2023-04-18T02:40:18.784Z,25.23
2023-04-18T02:41:18.834Z,25.25
2023-04-18T02:42:18.902Z,25.20
2023-04-18T02:43:18.915Z,25.21
2023-04-18T02:44:19.037Z,25.19
2023-04-18T02:45:18.970Z,25.20
2023-04-18T02:46:19.054Z,25.22
2023-04-18T02:47:19.064Z,25.22
2023-04-18T02:48:19.109Z,25.18
2023-04-18T02:49:19.153Z,25.21
2023-04-18T02:50:19.195Z,25.26
2023-04-18T02:51:19.236Z,25.22
2023-04-18T02:52:19.287Z,25.21
2023-04-18T02:53:19.317Z,25.22
2023-04-18T02:54:19.355Z,25.19
2023-04-18T02:55:19.443Z,25.23
2023-04-18T02:56:19.448Z,25.21
2023-04-18T02:57:19.503Z,25.23
2023-04-18T02:58:19.513Z,25.21
2023-04-18T02:59:19.584Z,25.21
2023-04-18T03:00:19.634Z,25.22
2023-04-18T03:01:19.723Z,25.22
2023-04-18T03:02:19.778Z,25.18
2023-04-18T03:03:19.900Z,25.22
2023-04-18T03:04:19.885Z,25.25
2023-04-18T03:05:19.856Z,25.19
2023-04-18T03:06:19.915Z,25.20
2023-04-18T03:07:19.962Z,25.22
2023-04-18T03:08:20.036Z,25.23
2023-04-18T03:09:20.066Z,25.25
2023-04-18T03:10:20.123Z,25.18
2023-04-18T03:11:20.201Z,25.20
2023-04-18T03:12:20.198Z,25.26
2023-04-18T03:13:20.262Z,25.25
2023-04-18T03:14:20.335Z,25.23
2023-04-18T03:15:20.359Z,25.23
2023-04-18T03:16:20.475Z,25.25
2023-04-18T03:17:20.566Z,25.20
2023-04-18T03:18:20.514Z,25.22
2023-04-18T03:19:20.532Z,25.23
2023-04-18T03:20:20.590Z,25.20
2023-04-18T03:21:20.622Z,25.19
2023-04-18T03:22:20.636Z,25.20
2023-04-18T03:23:20.708Z,25.23
2023-04-18T03:24:20.745Z,25.23
2023-04-18T03:25:20.800Z,25.23
2023-04-18T03:26:20.842Z,25.23
2023-04-18T03:27:20.882Z,25.25
2023-04-18T03:28:20.950Z,25.23
2023-04-18T03:29:20.950Z,25.20
2023-04-18T03:30:21.043Z,25.26
2023-04-18T03:31:21.097Z,25.25
2023-04-18T03:32:21.182Z,25.22
2023-04-18T03:33:21.137Z,25.23
2023-04-18T03:34:21.185Z,25.27
2023-04-18T03:35:21.241Z,25.23
2023-04-18T03:36:21.291Z,25.22
2023-04-18T03:37:21.336Z,25.23
2023-04-18T03:38:21.374Z,25.26
2023-04-18T03:39:21.386Z,25.18
2023-04-18T03:40:21.439Z,25.26
2023-04-18T03:41:21.480Z,25.24
2023-04-18T03:42:21.583Z,25.26
2023-04-18T03:43:21.576Z,25.23
2023-04-18T03:44:21.625Z,25.24
2023-04-18T03:45:21.688Z,25.28
2023-04-18T03:46:21.765Z,25.26
2023-04-18T03:47:21.775Z,25.26
2023-04-18T03:48:21.809Z,25.26
2023-04-18T03:49:21.846Z,25.22
2023-04-18T03:50:21.906Z,25.22
2023-04-18T03:51:21.998Z,25.26
2023-04-18T03:52:22.009Z,25.26
2023-04-18T03:53:22.037Z,25.23
2023-04-18T03:54:22.080Z,25.24
2023-04-18T03:55:22.134Z,25.31
2023-04-18T03:56:22.174Z,25.27
2023-04-18T03:57:22.193Z,25.30
2023-04-18T03:58:23.226Z,25.25
2023-04-18T03:59:22.313Z,25.26
2023-04-18T04:00:22.364Z,25.23
2023-04-18T04:01:22.429Z,25.23
2023-04-18T04:02:22.543Z,25.23
2023-04-18T04:03:22.737Z,25.19
2023-04-18T04:04:22.732Z,25.17
2023-04-18T04:05:22.607Z,25.02
2023-04-18T04:06:22.749Z,24.94
2023-04-18T04:07:22.719Z,24.92
2023-04-18T04:08:22.757Z,24.86
2023-04-18T04:09:22.835Z,24.81
2023-04-18T04:10:22.921Z,24.69
2023-04-18T04:11:22.952Z,24.68
2023-04-18T04:12:22.988Z,24.62
2023-04-18T04:13:23.047Z,24.61
2023-04-18T04:14:23.041Z,24.55
2023-04-18T04:15:23.057Z,24.50
2023-04-18T04:16:23.098Z,24.51
2023-04-18T04:17:23.046Z,24.48
2023-04-18T04:18:23.058Z,24.48
2023-04-18T04:19:23.034Z,24.45
2023-04-18T04:20:23.056Z,24.40
2023-04-18T04:21:23.044Z,24.40
2023-04-18T04:22:23.021Z,24.35
2023-04-18T04:23:23.034Z,24.36
2023-04-18T04:24:23.005Z,24.32
2023-04-18T04:25:23.024Z,24.27
2023-04-18T04:26:23.032Z,24.24
2023-04-18T04:27:23.036Z,24.26
2023-04-18T04:28:23.044Z,24.27
2023-04-18T04:29:23.034Z,24.26
2023-04-18T04:30:23.004Z,24.27
2023-04-18T04:31:23.064Z,24.17
2023-04-18T04:32:23.104Z,24.22
2023-04-18T04:33:23.023Z,24.24
2023-04-18T04:34:23.029Z,24.31
2023-04-18T04:35:23.079Z,24.27
2023-04-18T04:36:23.174Z,24.32
2023-04-18T04:37:23.200Z,24.29
2023-04-18T04:38:23.273Z,24.32
2023-04-18T04:39:23.324Z,24.41
2023-04-18T04:40:23.389Z,24.36
2023-04-18T04:41:23.410Z,24.42
2023-04-18T04:42:23.492Z,24.40
2023-04-18T04:43:23.540Z,24.35
2023-04-18T04:44:23.628Z,24.39
2023-04-18T04:45:23.680Z,24.39
2023-04-18T04:46:23.753Z,24.45
2023-04-18T04:47:23.788Z,24.46
2023-04-18T04:48:23.856Z,24.50
2023-04-18T04:49:23.878Z,24.51
2023-04-18T04:50:23.959Z,24.43
2023-04-18T04:51:24.072Z,24.46
2023-04-18T04:52:24.074Z,24.50
2023-04-18T04:53:24.211Z,24.51
2023-04-18T04:54:24.232Z,24.50
2023-04-18T04:55:24.348Z,24.50
2023-04-18T04:56:24.350Z,24.47
2023-04-18T04:57:24.345Z,24.49
2023-04-18T04:58:24.458Z,24.54
2023-04-18T04:59:24.503Z,24.50
2023-04-18T05:00:24.640Z,24.54
2023-04-18T05:01:24.662Z,24.49
2023-04-18T05:02:24.824Z,24.49
2023-04-18T05:03:24.846Z,24.58
2023-04-18T05:04:24.920Z,24.55
2023-04-18T05:05:24.804Z,24.58
2023-04-18T05:06:24.903Z,24.58
2023-04-18T05:07:24.921Z,24.59
2023-04-18T05:08:24.972Z,24.59
2023-04-18T05:09:25.056Z,24.62
2023-04-18T05:10:25.085Z,24.55
2023-04-18T05:11:25.180Z,24.61
2023-04-18T05:12:25.226Z,24.62
2023-04-18T05:13:25.272Z,24.65
2023-04-18T05:14:25.298Z,24.63
2023-04-18T05:15:25.353Z,24.63
2023-04-18T05:16:25.456Z,24.66
2023-04-18T05:17:25.484Z,24.62
2023-04-18T05:18:25.605Z,24.66
2023-04-18T05:19:25.610Z,24.63
2023-04-18T05:20:25.670Z,24.66
2023-04-18T05:21:25.707Z,24.65
2023-04-18T05:22:25.748Z,24.67
2023-04-18T05:23:25.864Z,24.67
2023-04-18T05:24:25.894Z,24.65
2023-04-18T05:25:25.954Z,24.66
2023-04-18T05:26:26.020Z,24.63
2023-04-18T05:27:26.062Z,24.67
2023-04-18T05:28:26.149Z,24.66
2023-04-18T05:29:26.204Z,24.67
2023-04-18T05:30:26.248Z,24.67
2023-04-18T05:31:26.313Z,24.71
2023-04-18T05:32:26.381Z,24.68
2023-04-18T05:33:26.423Z,24.67
2023-04-18T05:34:26.494Z,25.08
2023-04-18T05:35:26.554Z,24.95
2023-04-18T05:36:26.597Z,24.81
2023-04-18T05:37:26.702Z,24.71
2023-04-18T05:38:26.713Z,24.81
2023-04-18T05:39:26.797Z,24.90
2023-04-18T05:40:26.800Z,24.97
2023-04-18T05:41:26.860Z,25.11
2023-04-18T05:42:26.906Z,25.24
2023-04-18T05:43:26.975Z,25.41
2023-04-18T05:44:27.032Z,25.51
2023-04-18T05:45:27.066Z,25.55
2023-04-18T05:46:27.157Z,25.61
2023-04-18T05:47:27.216Z,25.78
2023-04-18T05:48:27.226Z,25.84
2023-04-18T05:49:27.251Z,26.09
2023-04-18T05:50:27.343Z,25.84
2023-04-18T05:51:27.592Z,25.91
2023-04-18T05:52:27.356Z,25.97
2023-04-18T05:53:27.405Z,25.93
2023-04-18T05:54:27.451Z,25.84
2023-04-18T05:55:27.441Z,25.76
2023-04-18T05:56:27.437Z,25.64
2023-04-18T05:57:27.593Z,25.59
2023-04-18T05:58:27.532Z,25.52
2023-04-18T05:59:27.600Z,25.69
2023-04-18T06:00:27.546Z,25.60
2023-04-18T06:01:27.617Z,25.50
2023-04-18T06:02:27.770Z,25.38
2023-04-18T06:03:27.803Z,25.33
2023-04-18T06:04:27.807Z,25.31
2023-04-18T06:05:28.081Z,25.26
2023-04-18T06:06:27.711Z,25.22
2023-04-18T06:07:27.699Z,25.16
2023-04-18T06:08:27.690Z,25.16
2023-04-18T06:09:27.712Z,25.09
2023-04-18T06:10:27.772Z,25.08
2023-04-18T06:11:27.752Z,25.07
2023-04-18T06:12:27.888Z,24.98
2023-04-18T06:13:27.802Z,24.94
2023-04-18T06:14:27.794Z,24.93
2023-04-18T06:15:28.057Z,24.86
2023-04-18T06:16:27.880Z,24.84
2023-04-18T06:17:27.816Z,24.82
2023-04-18T06:18:27.770Z,24.78
2023-04-18T06:19:27.826Z,24.74
2023-04-18T06:20:27.820Z,24.69
2023-04-18T06:21:27.814Z,24.68
2023-04-18T06:22:27.798Z,24.58
2023-04-18T06:23:27.791Z,24.57
2023-04-18T06:24:28.326Z,24.49
2023-04-18T06:25:27.816Z,24.46
2023-04-18T06:26:27.812Z,24.46
2023-04-18T06:27:31.554Z,24.44
2023-04-18T06:28:28.297Z,24.41
2023-04-18T06:29:27.761Z,24.36
2023-04-18T06:30:27.783Z,24.36
2023-04-18T06:31:28.159Z,24.36
2023-04-18T06:32:28.165Z,24.33
2023-04-18T06:33:28.126Z,24.30
2023-04-18T06:34:27.721Z,24.30
2023-04-18T06:35:28.148Z,24.35
2023-04-18T06:36:27.749Z,24.35
2023-04-18T06:37:27.708Z,24.37
2023-04-18T06:38:27.707Z,24.34
2023-04-18T06:39:27.752Z,24.31
2023-04-18T06:40:27.720Z,24.29
2023-04-18T06:41:27.716Z,24.29
2023-04-18T06:42:27.695Z,24.23
2023-04-18T06:43:27.732Z,24.30
2023-04-18T06:44:27.718Z,24.23
2023-04-18T06:45:27.761Z,24.19
2023-04-18T06:46:27.772Z,24.18
2023-04-18T06:47:27.682Z,24.16
2023-04-18T06:48:28.132Z,24.13
2023-04-18T06:49:27.668Z,24.15
2023-04-18T06:50:27.649Z,24.11
2023-04-18T06:51:27.715Z,24.13
2023-04-18T06:52:27.637Z,24.08
2023-04-18T06:53:27.650Z,24.07
2023-04-18T06:54:27.654Z,24.09
2023-04-18T06:55:27.607Z,24.08
2023-04-18T06:56:27.609Z,24.07
2023-04-18T06:57:29.041Z,24.12
2023-04-18T06:58:27.629Z,24.11
2023-04-18T06:59:27.588Z,24.13
2023-04-18T07:00:27.599Z,24.16
2023-04-18T07:01:27.609Z,24.12
2023-04-18T07:02:27.604Z,24.15
2023-04-18T07:03:27.661Z,24.12
2023-04-18T07:04:27.670Z,24.14
2023-04-18T07:05:27.677Z,24.16
2023-04-18T07:06:27.680Z,24.16
2023-04-18T07:07:27.750Z,24.13
2023-04-18T07:08:27.798Z,24.13
2023-04-18T07:09:27.859Z,24.16
2023-04-18T07:10:27.914Z,24.21
2023-04-18T07:11:27.918Z,24.14
2023-04-18T07:12:28.136Z,24.22
2023-04-18T07:13:27.998Z,24.26
2023-04-18T07:14:28.039Z,24.33
2023-04-18T07:15:28.108Z,24.33
2023-04-18T07:16:28.315Z,24.31
2023-04-18T07:17:28.172Z,24.39
2023-04-18T07:18:37.635Z,24.41
2023-04-18T07:19:29.150Z,24.39
2023-04-18T07:20:28.141Z,24.42
2023-04-18T07:21:28.146Z,24.45
2023-04-18T07:22:28.144Z,24.46
2023-04-18T07:23:28.099Z,24.43
2023-04-18T07:24:28.105Z,24.46
2023-04-18T07:25:28.107Z,24.50
2023-04-18T07:26:28.075Z,24.58
2023-04-18T07:27:28.077Z,24.50
2023-04-18T07:28:28.094Z,24.55
2023-04-18T07:29:28.093Z,24.60
2023-04-18T07:30:28.066Z,24.61
2023-04-18T07:31:28.087Z,24.65
2023-04-18T07:32:28.151Z,24.98
2023-04-18T07:33:28.089Z,25.09
2023-04-18T07:34:28.040Z,25.18
2023-04-18T07:35:28.026Z,25.18
2023-04-18T07:36:28.139Z,25.74
2023-04-18T07:37:28.020Z,25.88
2023-04-18T07:38:27.990Z,26.01
2023-04-18T07:39:28.008Z,25.91
2023-04-18T07:40:28.039Z,26.12
2023-04-18T07:41:28.165Z,26.16
2023-04-18T07:42:28.026Z,26.53
2023-04-18T07:43:28.106Z,26.44
2023-04-18T07:44:28.152Z,26.33
2023-04-18T07:45:28.227Z,26.81
2023-04-18T07:46:28.244Z,26.42
2023-04-18T07:47:30.316Z,26.38
2023-04-18T07:48:28.755Z,26.49
2023-04-18T07:49:28.722Z,26.48
2023-04-18T07:50:28.554Z,26.38
2023-04-18T07:51:28.519Z,26.42
2023-04-18T07:52:28.612Z,26.41
2023-04-18T07:53:28.616Z,26.56
2023-04-18T07:54:28.621Z,26.55
2023-04-18T07:55:28.735Z,26.39
2023-04-18T07:56:28.632Z,26.23
2023-04-18T07:57:28.645Z,26.40
2023-04-18T07:58:28.628Z,26.33
2023-04-18T07:59:28.611Z,26.32
2023-04-18T08:00:28.664Z,26.62
2023-04-18T08:01:28.630Z,27.00
2023-04-18T08:02:28.859Z,26.72
2023-04-18T08:03:28.837Z,26.73
2023-04-18T08:04:30.359Z,26.50
2023-04-18T08:05:28.703Z,26.47
2023-04-18T08:06:28.658Z,26.46
2023-04-18T08:07:28.660Z,26.48
2023-04-18T08:08:28.640Z,26.48
2023-04-18T08:09:28.673Z,26.67
2023-04-18T08:10:28.618Z,26.57
2023-04-18T08:11:28.643Z,26.50
2023-04-18T08:12:28.672Z,26.46
2023-04-18T08:13:28.700Z,26.48
2023-04-18T08:14:28.778Z,26.41
2023-04-18T08:15:28.822Z,26.39
2023-04-18T08:16:28.897Z,26.35
2023-04-18T08:17:28.944Z,26.32
2023-04-18T08:18:29.005Z,26.42
2023-04-18T08:19:29.206Z,26.46
2023-04-18T08:20:29.088Z,26.43
2023-04-18T08:21:29.112Z,26.47
2023-04-18T08:22:29.197Z,26.58
2023-04-18T08:23:29.185Z,26.41
2023-04-18T08:24:29.284Z,26.31
2023-04-18T08:25:29.359Z,26.28
2023-04-18T08:26:29.350Z,26.05
2023-04-18T08:27:29.454Z,25.75
2023-04-18T08:28:29.474Z,25.65
2023-04-18T08:29:29.574Z,25.50
2023-04-18T08:30:29.636Z,25.31
2023-04-18T08:31:29.692Z,25.15
2023-04-18T08:32:29.723Z,25.17
2023-04-18T08:33:29.711Z,25.08
2023-04-18T08:34:29.705Z,24.89
2023-04-18T08:35:29.726Z,24.80
2023-04-18T08:36:29.718Z,24.49
2023-04-18T08:37:29.683Z,24.61
2023-04-18T08:38:29.741Z,24.53
2023-04-18T08:39:29.684Z,24.42
2023-04-18T08:40:29.750Z,24.43
2023-04-18T08:41:29.742Z,24.40
2023-04-18T08:42:29.723Z,24.43
2023-04-18T08:43:29.741Z,24.56
2023-04-18T08:44:29.757Z,24.85
2023-04-18T08:45:29.752Z,24.93
2023-04-18T08:46:29.793Z,25.11
2023-04-18T08:47:29.816Z,24.97
2023-04-18T08:48:29.709Z,24.95
2023-04-18T08:49:29.722Z,24.89
2023-04-18T08:50:29.730Z,25.00
2023-04-18T08:51:29.691Z,25.05
2023-04-18T08:52:29.706Z,24.90
2023-04-18T08:53:29.738Z,24.85
2023-04-18T08:54:29.729Z,24.93
2023-04-18T08:55:29.712Z,25.00
2023-04-18T08:56:29.696Z,25.00
2023-04-18T08:57:29.714Z,24.96
2023-04-18T08:58:29.719Z,24.94
2023-04-18T08:59:29.668Z,24.99
2023-04-18T09:00:29.742Z,24.83
2023-04-18T09:01:29.808Z,24.87
2023-04-18T09:02:29.859Z,24.80
2023-04-18T09:03:29.837Z,24.78
2023-04-18T09:04:29.980Z,24.84
2023-04-18T09:05:29.818Z,24.83
2023-04-18T09:06:29.869Z,24.73
2023-04-18T09:07:29.864Z,24.71
2023-04-18T09:08:29.789Z,24.82
2023-04-18T09:09:30.201Z,24.71
2023-04-18T09:10:29.805Z,24.75
2023-04-18T09:11:29.859Z,24.76
2023-04-18T09:12:29.802Z,24.77
2023-04-18T09:13:29.848Z,24.81
2023-04-18T09:14:30.229Z,24.86
2023-04-18T09:15:30.023Z,24.82
2023-04-18T09:16:30.054Z,24.81
2023-04-18T09:17:30.136Z,24.87
2023-04-18T09:18:30.126Z,24.88
2023-04-18T09:19:30.222Z,24.84
2023-04-18T09:20:30.272Z,24.84
2023-04-18T09:21:30.350Z,24.80
2023-04-18T09:22:30.449Z,24.78
2023-04-18T09:23:30.457Z,24.86
2023-04-18T09:24:30.495Z,24.83
2023-04-18T09:25:30.512Z,24.81
2023-04-18T09:26:30.557Z,24.83
2023-04-18T09:27:30.586Z,24.81
2023-04-18T09:28:30.644Z,24.80
2023-04-18T09:29:30.705Z,24.81
2023-04-18T09:30:30.857Z,24.77
2023-04-18T09:31:30.858Z,24.93
2023-04-18T09:32:30.855Z,25.37
2023-04-18T09:33:30.875Z,25.25
2023-04-18T09:34:30.936Z,25.35
2023-04-18T09:35:31.006Z,25.31
2023-04-18T09:36:31.330Z,25.32
2023-04-18T09:37:31.107Z,25.34
2023-04-18T09:38:31.169Z,25.46
2023-04-18T09:39:31.234Z,25.57
2023-04-18T09:40:31.334Z,25.73
2023-04-18T09:41:31.703Z,25.43
2023-04-18T09:42:31.520Z,25.67
2023-04-18T09:43:31.466Z,25.44
2023-04-18T09:44:31.509Z,25.58
2023-04-18T09:45:31.640Z,25.54
2023-04-18T09:46:31.736Z,25.57
2023-04-18T09:47:32.262Z,25.46
2023-04-18T09:48:31.783Z,25.28
2023-04-18T09:49:31.827Z,25.41
2023-04-18T09:50:31.865Z,25.30
2023-04-18T09:51:32.006Z,25.27
2023-04-18T09:52:32.035Z,25.19
2023-04-18T09:53:32.095Z,25.16
2023-04-18T09:54:32.157Z,25.15
2023-04-18T09:55:32.236Z,25.09
2023-04-18T09:56:32.432Z,25.09
2023-04-18T09:57:32.296Z,25.01
2023-04-18T09:58:32.382Z,24.94
2023-04-18T09:59:32.404Z,24.94
2023-04-18T10:00:32.489Z,24.96
2023-04-18T10:01:32.565Z,24.90
2023-04-18T10:02:32.703Z,24.89
2023-04-18T10:03:32.777Z,24.84
2023-04-18T10:04:32.754Z,24.85
2023-04-18T10:05:32.756Z,24.79
2023-04-18T10:06:32.838Z,24.79
2023-04-18T10:07:32.896Z,24.79
2023-04-18T10:08:32.942Z,24.77
2023-04-18T10:09:33.013Z,24.78
2023-04-18T10:10:33.077Z,24.77
2023-04-18T10:11:33.137Z,24.76
2023-04-18T10:12:33.255Z,24.74
2023-04-18T10:13:33.266Z,24.70
2023-04-18T10:14:33.305Z,24.73
2023-04-18T10:15:33.756Z,24.78
2023-04-18T10:16:34.967Z,24.93
2023-04-18T10:17:33.405Z,24.70
2023-04-18T10:18:33.411Z,24.67
2023-04-18T10:19:33.403Z,24.73
2023-04-18T10:20:33.463Z,24.72
2023-04-18T10:21:33.410Z,24.69
2023-04-18T10:22:33.715Z,24.70
2023-04-18T10:23:33.357Z,24.65
2023-04-18T10:24:33.336Z,24.60
2023-04-18T10:25:33.357Z,24.61
2023-04-18T10:26:33.353Z,24.13
2023-04-18T10:27:33.321Z,24.20
2023-04-18T10:28:33.370Z,24.25
2023-04-18T10:29:33.299Z,23.99
2023-04-18T10:30:33.312Z,23.84
2023-04-18T10:31:33.355Z,24.21
2023-04-18T10:32:33.736Z,24.02
2023-04-18T10:33:34.114Z,24.24
2023-04-18T10:34:33.271Z,24.37
2023-04-18T10:35:33.435Z,24.41
2023-04-18T10:36:33.267Z,24.51
2023-04-18T10:37:33.253Z,24.55
2023-04-18T10:38:33.258Z,24.56
2023-04-18T10:39:33.274Z,24.59
2023-04-18T10:40:33.250Z,24.61
2023-04-18T10:41:33.227Z,24.61
2023-04-18T10:42:33.739Z,24.62
2023-04-18T10:43:33.234Z,24.72
2023-04-18T10:44:33.220Z,24.72
2023-04-18T10:45:33.202Z,24.72
2023-04-18T10:46:33.208Z,24.83
2023-04-18T10:47:33.496Z,24.72
2023-04-18T10:48:33.182Z,24.68
2023-04-18T10:49:33.207Z,24.71
2023-04-18T10:50:33.190Z,24.67
2023-04-18T10:51:33.137Z,24.71
2023-04-18T10:52:33.146Z,24.70
2023-04-18T10:53:33.255Z,24.67
2023-04-18T10:54:33.162Z,24.72
2023-04-18T10:55:33.139Z,24.63
2023-04-18T10:56:33.197Z,24.68
2023-04-18T10:57:33.109Z,24.69
2023-04-18T10:58:33.118Z,24.68
2023-04-18T10:59:33.086Z,24.76
2023-04-18T11:00:33.115Z,24.71
2023-04-18T11:01:33.361Z,24.71
2023-04-18T11:02:33.199Z,24.63
2023-04-18T11:03:33.136Z,24.60
2023-04-18T11:04:33.155Z,24.52
2023-04-18T11:05:33.138Z,24.59
2023-04-18T11:06:33.190Z,24.62
2023-04-18T11:07:33.185Z,24.54
2023-04-18T11:08:33.272Z,24.58
2023-04-18T11:09:33.255Z,24.50
2023-04-18T11:10:33.294Z,24.49
2023-04-18T11:11:33.339Z,24.52
2023-04-18T11:12:33.373Z,24.55
2023-04-18T11:13:33.366Z,24.53
2023-04-18T11:14:33.401Z,24.51
2023-04-18T11:15:33.411Z,24.41
2023-04-18T11:16:33.458Z,24.47
2023-04-18T11:17:33.463Z,24.54
2023-04-18T11:18:33.485Z,24.59
2023-04-18T11:19:33.736Z,24.87
2023-04-18T11:20:33.492Z,24.64
2023-04-18T11:21:33.558Z,24.66
2023-04-18T11:22:33.612Z,24.62
2023-04-18T11:23:33.629Z,24.53
2023-04-18T11:24:33.780Z,24.37
2023-04-18T11:25:33.697Z,24.30
2023-04-18T11:26:34.297Z,24.20
2023-04-18T11:27:33.792Z,24.11
2023-04-18T11:28:33.838Z,24.05
2023-04-18T11:29:33.933Z,23.97
2023-04-18T11:30:33.968Z,23.97
2023-04-18T11:31:34.032Z,23.90
2023-04-18T11:32:34.376Z,23.87
2023-04-18T11:33:34.112Z,23.81
2023-04-18T11:34:34.155Z,23.75
2023-04-18T11:35:34.239Z,23.73
2023-04-18T11:36:34.221Z,23.69
2023-04-18T11:37:34.240Z,23.67
2023-04-18T11:38:34.252Z,23.58
2023-04-18T11:39:34.241Z,23.54
2023-04-18T11:40:34.251Z,23.60
2023-04-18T11:41:34.295Z,23.58
2023-04-18T11:42:34.317Z,23.51
2023-04-18T11:43:34.306Z,23.47
2023-04-18T11:44:36.091Z,23.45
2023-04-18T11:45:34.303Z,23.49
2023-04-18T11:46:34.438Z,23.44
2023-04-18T11:47:34.373Z,23.37
2023-04-18T11:48:34.315Z,23.29
2023-04-18T11:49:34.358Z,23.35
2023-04-18T11:50:34.331Z,23.26
2023-04-18T11:51:34.337Z,23.33
2023-04-18T11:52:34.394Z,23.26
2023-04-18T11:53:34.357Z,23.27
2023-04-18T11:54:34.339Z,23.22
2023-04-18T11:55:34.352Z,23.17
2023-04-18T11:56:36.646Z,23.14
2023-04-18T11:57:34.469Z,23.22
2023-04-18T11:58:34.448Z,23.24
2023-04-18T11:59:34.454Z,23.31
2023-04-18T12:00:34.457Z,23.32
2023-04-18T12:01:34.502Z,23.41
2023-04-18T12:02:34.563Z,23.44
2023-04-18T12:03:34.663Z,23.33
2023-04-18T12:04:34.704Z,23.42
2023-04-18T12:05:34.757Z,23.58
2023-04-18T12:06:34.457Z,23.63
2023-04-18T12:07:34.499Z,23.65
2023-04-18T12:08:34.503Z,23.65
2023-04-18T12:09:34.495Z,23.65
2023-04-18T12:10:34.513Z,23.66
2023-04-18T12:11:34.548Z,23.63
2023-04-18T12:12:34.574Z,23.65
2023-04-18T12:13:34.588Z,23.68
2023-04-18T12:14:34.588Z,23.72
2023-04-18T12:15:34.652Z,23.77
2023-04-18T12:16:34.714Z,23.73
2023-04-18T12:17:34.688Z,23.76
2023-04-18T12:18:34.765Z,23.77
2023-04-18T12:19:34.803Z,23.68
2023-04-18T12:20:34.931Z,23.72
2023-04-18T12:21:34.870Z,23.73
2023-04-18T12:22:34.875Z,23.70
2023-04-18T12:23:34.927Z,23.76
2023-04-18T12:24:34.955Z,23.76
2023-04-18T12:25:35.065Z,23.73
2023-04-18T12:26:35.067Z,23.80
2023-04-18T12:27:35.152Z,23.80
2023-04-18T12:28:35.277Z,23.81
2023-04-18T12:29:35.305Z,23.80
2023-04-18T12:30:37.577Z,23.73
2023-04-18T12:31:35.543Z,23.80
2023-04-18T12:32:35.589Z,23.78
2023-04-18T12:33:35.639Z,23.80
2023-04-18T12:34:35.678Z,23.80
2023-04-18T12:35:35.724Z,23.81
2023-04-18T12:36:35.804Z,23.75
2023-04-18T12:37:35.853Z,23.79
2023-04-18T12:38:35.922Z,23.77
2023-04-18T12:39:35.987Z,23.80
2023-04-18T12:40:36.056Z,23.81
2023-04-18T12:41:36.069Z,23.81
2023-04-18T12:42:36.155Z,23.86
2023-04-18T12:43:36.208Z,23.81
2023-04-18T12:44:36.264Z,23.79
2023-04-18T12:45:36.332Z,23.81
2023-04-18T12:46:36.448Z,23.80
2023-04-18T12:47:36.455Z,23.83
2023-04-18T12:48:36.484Z,23.87
2023-04-18T12:49:36.557Z,23.84
2023-04-18T12:50:36.618Z,23.83
2023-04-18T12:51:36.679Z,23.85
2023-04-18T12:52:36.745Z,23.84